createdAt,value
2019-03-20T00:00:23.094Z,6.62
2019-03-20T00:02:50.049Z,6.58
2019-03-20T00:05:16.938Z,8.00
2019-03-20T00:07:43.741Z,7.08
2019-03-20T00:10:10.718Z,6.62
2019-03-20T00:12:38.111Z,7.33
2019-03-20T00:15:05.794Z,7.05
2019-03-20T00:17:32.589Z,6.90
2019-03-20T00:19:59.358Z,5.95
2019-03-20T00:22:26.153Z,6.67
2019-03-20T00:24:52.947Z,6.92
2019-03-20T00:27:19.937Z,7.40
2019-03-20T00:29:46.720Z,8.15
2019-03-20T00:32:13.639Z,6.12
2019-03-20T00:34:40.484Z,7.40
2019-03-20T00:37:07.393Z,6.45
2019-03-20T00:39:34.230Z,6.65
2019-03-20T00:42:01.052Z,6.33
2019-03-20T00:44:27.830Z,7.45
2019-03-20T00:46:54.613Z,7.60
2019-03-20T00:49:21.393Z,6.72
2019-03-20T00:51:48.384Z,7.53
2019-03-20T00:54:15.157Z,7.97
2019-03-20T00:56:41.939Z,7.42
2019-03-20T00:59:08.921Z,8.13
2019-03-20T01:01:36.525Z,7.83
2019-03-20T01:04:03.568Z,8.43
2019-03-20T01:06:30.452Z,8.03
2019-03-20T01:08:57.230Z,7.65
2019-03-20T01:11:24.107Z,8.03
2019-03-20T01:13:50.974Z,7.90
2019-03-20T01:16:17.760Z,6.92
2019-03-20T01:18:44.671Z,7.33
2019-03-20T01:21:11.650Z,7.58
2019-03-20T01:23:38.529Z,7.72
2019-03-20T01:26:05.438Z,7.53
2019-03-20T01:28:32.246Z,7.78
2019-03-20T01:30:59.138Z,8.08
2019-03-20T01:33:25.917Z,6.80
2019-03-20T01:35:52.698Z,7.92
2019-03-20T01:38:19.495Z,6.95
2019-03-20T01:40:46.302Z,7.37
2019-03-20T01:43:13.183Z,9.05
2019-03-20T01:45:39.977Z,7.70
2019-03-20T01:48:06.985Z,8.05
2019-03-20T01:50:33.868Z,7.30
2019-03-20T01:53:00.657Z,8.53
2019-03-20T01:55:27.541Z,8.10
2019-03-20T01:57:54.516Z,7.45
2019-03-20T02:00:21.416Z,7.22
2019-03-20T02:02:48.305Z,7.33
2019-03-20T02:05:15.376Z,6.83
2019-03-20T02:07:42.450Z,7.05
2019-03-20T02:10:09.742Z,7.05
2019-03-20T02:12:36.756Z,7.58
2019-03-20T02:15:06.710Z,7.28
2019-03-20T02:17:33.510Z,7.92
2019-03-20T02:20:00.398Z,7.92
2019-03-20T02:22:27.432Z,7.35
2019-03-20T02:24:54.437Z,7.60
2019-03-20T02:27:21.250Z,9.13
2019-03-20T02:29:48.142Z,8.43
2019-03-20T02:32:14.937Z,8.30
2019-03-20T02:34:41.825Z,8.13
2019-03-20T02:37:08.636Z,7.97
2019-03-20T02:39:35.429Z,7.75
2019-03-20T02:42:02.476Z,8.25
2019-03-20T02:44:29.450Z,8.23
2019-03-20T02:46:56.549Z,7.97
2019-03-20T02:49:23.531Z,7.67
2019-03-20T02:51:50.325Z,8.43
2019-03-20T02:54:17.149Z,8.40
2019-03-20T02:56:44.229Z,8.43
2019-03-20T02:59:11.140Z,9.33
2019-03-20T03:01:38.022Z,7.83
2019-03-20T03:04:05.042Z,8.63
2019-03-20T03:06:31.919Z,8.55
2019-03-20T03:08:58.727Z,9.10
2019-03-20T03:11:25.609Z,8.83
2019-03-20T03:13:52.635Z,8.83
2019-03-20T03:16:19.626Z,8.48
2019-03-20T03:18:46.533Z,9.03
2019-03-20T03:21:13.416Z,7.65
2019-03-20T03:23:40.211Z,8.10
2019-03-20T03:26:07.035Z,7.22
2019-03-20T03:28:33.831Z,7.78
2019-03-20T03:31:00.717Z,8.65
2019-03-20T03:33:27.521Z,9.28
2019-03-20T03:35:54.313Z,10.50
2019-03-20T03:38:21.225Z,9.63
2019-03-20T03:40:48.277Z,9.33
2019-03-20T03:43:15.170Z,10.32
2019-03-20T03:45:42.071Z,10.50
2019-03-20T03:48:08.973Z,9.95
2019-03-20T03:50:35.852Z,9.60
2019-03-20T03:53:02.728Z,9.38
2019-03-20T03:55:29.610Z,10.00
2019-03-20T03:57:56.788Z,8.90
2019-03-20T04:00:23.698Z,9.48
2019-03-20T04:02:50.551Z,9.40
2019-03-20T04:05:17.450Z,8.70
2019-03-20T04:07:44.426Z,7.95
2019-03-20T04:10:11.745Z,8.68
2019-03-20T04:12:38.647Z,9.73
2019-03-20T04:15:06.946Z,8.15
2019-03-20T04:17:33.938Z,7.62
2019-03-20T04:20:01.209Z,7.92
2019-03-20T04:22:28.253Z,9.43
2019-03-20T04:24:55.068Z,9.55
2019-03-20T04:27:21.929Z,11.00
2019-03-20T04:29:48.818Z,10.85
2019-03-20T04:32:15.701Z,11.03
2019-03-20T04:34:42.498Z,10.98
2019-03-20T04:37:09.286Z,11.43
2019-03-20T04:39:36.061Z,11.10
2019-03-20T04:42:02.940Z,10.93
2019-03-20T04:44:29.844Z,9.78
2019-03-20T04:46:56.613Z,9.13
2019-03-20T04:49:23.378Z,8.45
2019-03-20T04:51:50.261Z,8.48
2019-03-20T04:54:17.059Z,8.90
2019-03-20T04:56:43.961Z,7.85
2019-03-20T04:59:10.849Z,9.65
2019-03-20T05:01:37.614Z,12.25
2019-03-20T05:04:04.602Z,12.33
2019-03-20T05:06:31.420Z,9.70
2019-03-20T05:08:58.310Z,9.35
2019-03-20T05:11:25.111Z,8.93
2019-03-20T05:13:51.901Z,8.63
2019-03-20T05:16:18.704Z,8.98
2019-03-20T05:18:45.482Z,10.10
2019-03-20T05:21:12.361Z,8.88
2019-03-20T05:23:39.141Z,10.03
2019-03-20T05:26:06.034Z,9.08
2019-03-20T05:28:32.825Z,8.83
2019-03-20T05:30:59.624Z,8.43
2019-03-20T05:33:26.495Z,8.60
2019-03-20T05:35:53.292Z,8.30
2019-03-20T05:38:20.057Z,8.70
2019-03-20T05:40:46.952Z,8.73
2019-03-20T05:43:13.726Z,8.98
2019-03-20T05:45:40.524Z,8.70
2019-03-20T05:48:07.397Z,8.95
2019-03-20T05:50:34.294Z,8.90
2019-03-20T05:53:01.161Z,8.93
2019-03-20T05:55:27.965Z,10.30
2019-03-20T05:57:54.850Z,9.95
2019-03-20T06:00:21.995Z,9.90
2019-03-20T06:02:48.885Z,11.00
2019-03-20T06:05:15.765Z,9.63
2019-03-20T06:07:42.674Z,8.28
2019-03-20T06:10:10.867Z,10.08
2019-03-20T06:12:37.774Z,10.30
2019-03-20T06:15:05.633Z,9.20
2019-03-20T06:17:32.437Z,8.78
2019-03-20T06:19:59.225Z,10.20
2019-03-20T06:22:26.034Z,9.23
2019-03-20T06:24:52.833Z,39.05
2019-03-20T06:27:19.628Z,16.00
2019-03-20T06:29:46.397Z,41.55
2019-03-20T06:32:13.303Z,18.73
2019-03-20T06:34:40.106Z,15.80
2019-03-20T06:37:06.922Z,19.30
2019-03-20T06:39:33.705Z,19.05
2019-03-20T06:42:00.505Z,19.40
2019-03-20T06:44:27.308Z,17.03
2019-03-20T06:46:54.229Z,15.00
2019-03-20T06:49:21.026Z,14.53
2019-03-20T06:51:47.847Z,12.60
2019-03-20T06:54:14.690Z,13.27
2019-03-20T06:56:41.564Z,12.63
2019-03-20T06:59:40.635Z,13.67
2019-03-20T07:02:07.633Z,16.97
2019-03-20T07:05:17.201Z,11.13
2019-03-20T07:07:44.606Z,8.30
2019-03-20T07:10:26.631Z,8.90
2019-03-20T07:12:53.429Z,7.33
2019-03-20T07:15:20.217Z,5.90
2019-03-20T07:17:47.019Z,6.57
2019-03-20T07:20:14.006Z,6.13
2019-03-20T07:22:40.914Z,6.97
2019-03-20T07:25:07.881Z,6.10
2019-03-20T07:27:34.662Z,6.60
2019-03-20T07:30:01.667Z,6.87
2019-03-20T07:32:30.075Z,7.30
2019-03-20T07:34:57.026Z,7.33
2019-03-20T07:37:23.924Z,6.97
2019-03-20T07:39:50.806Z,6.83
2019-03-20T07:42:17.601Z,6.47
2019-03-20T07:44:44.489Z,6.80
2019-03-20T07:47:11.273Z,6.70
2019-03-20T07:49:38.175Z,6.50
2019-03-20T07:52:05.155Z,6.37
2019-03-20T07:54:32.045Z,6.50
2019-03-20T07:56:58.928Z,6.97
2019-03-20T07:59:25.698Z,7.10
2019-03-20T08:01:52.592Z,7.83
2019-03-20T08:04:19.448Z,7.63
2019-03-20T08:06:46.316Z,7.17
2019-03-20T08:09:13.101Z,7.40
2019-03-20T08:11:39.971Z,7.83
2019-03-20T08:14:06.879Z,7.00
2019-03-20T08:16:33.877Z,7.10
2019-03-20T08:19:00.665Z,6.73
2019-03-20T08:21:27.441Z,6.23
2019-03-20T08:23:54.263Z,6.43
2019-03-20T08:26:21.133Z,6.90
2019-03-20T08:28:48.008Z,6.33
2019-03-20T08:31:15.065Z,6.57
2019-03-20T08:33:41.964Z,6.93
2019-03-20T08:36:08.878Z,6.43
2019-03-20T08:38:35.875Z,7.00
2019-03-20T08:41:02.846Z,6.23
2019-03-20T08:43:29.693Z,6.13
2019-03-20T08:45:56.708Z,6.00
2019-03-20T08:48:23.752Z,3.57
2019-03-20T08:50:50.627Z,4.47
2019-03-20T08:53:17.461Z,3.57
2019-03-20T08:55:44.546Z,3.10
2019-03-20T08:58:11.589Z,3.60
2019-03-20T09:00:38.595Z,6.47
2019-03-20T09:03:05.385Z,2.97
2019-03-20T09:05:32.265Z,3.43
2019-03-20T09:07:59.049Z,2.80
2019-03-20T09:10:25.933Z,2.63
2019-03-20T09:12:52.883Z,2.43
2019-03-20T09:15:19.869Z,3.60
2019-03-20T09:17:46.745Z,2.93
2019-03-20T09:20:14.102Z,3.03
2019-03-20T09:22:40.990Z,3.10
2019-03-20T09:25:09.758Z,2.73
2019-03-20T09:27:36.530Z,2.43
2019-03-20T09:30:04.574Z,2.63
2019-03-20T09:32:31.467Z,2.77
2019-03-20T09:34:58.250Z,2.47
2019-03-20T09:37:25.023Z,2.27
2019-03-20T09:39:51.808Z,2.27
2019-03-20T09:42:18.677Z,2.77
2019-03-20T09:44:45.589Z,2.40
2019-03-20T09:47:12.372Z,2.27
2019-03-20T09:49:39.179Z,2.43
2019-03-20T09:52:06.056Z,2.60
2019-03-20T09:54:33.046Z,2.80
2019-03-20T09:57:00.225Z,2.93
2019-03-20T09:59:27.013Z,3.00
2019-03-20T10:01:53.901Z,3.03
2019-03-20T10:04:20.787Z,2.60
2019-03-20T10:06:47.656Z,3.00
2019-03-20T10:09:14.558Z,2.80
2019-03-20T10:11:41.496Z,3.73
2019-03-20T10:14:08.419Z,2.87
2019-03-20T10:16:35.348Z,2.27
2019-03-20T10:19:02.178Z,2.97
2019-03-20T10:21:29.145Z,2.90
2019-03-20T10:23:56.104Z,3.60
2019-03-20T10:26:22.969Z,3.47
2019-03-20T10:28:49.800Z,3.70
2019-03-20T10:31:16.702Z,3.37
2019-03-20T10:33:43.510Z,4.07
2019-03-20T10:36:10.440Z,3.33
2019-03-20T10:38:37.318Z,3.50
2019-03-20T10:41:04.583Z,4.03
2019-03-20T10:43:31.410Z,3.40
2019-03-20T10:45:58.540Z,3.40
2019-03-20T10:48:25.468Z,3.70
2019-03-20T10:50:52.502Z,2.87
2019-03-20T10:53:19.417Z,3.57
2019-03-20T10:55:46.372Z,3.27
2019-03-20T10:58:13.379Z,4.40
2019-03-20T11:00:40.926Z,3.00
2019-03-20T11:03:08.040Z,2.53
2019-03-20T11:05:35.064Z,2.37
2019-03-20T11:08:01.985Z,3.00
2019-03-20T11:10:29.136Z,2.90
2019-03-20T11:12:56.278Z,2.67
2019-03-20T11:15:23.622Z,3.43
2019-03-20T11:17:50.661Z,2.60
2019-03-20T11:20:17.834Z,2.80
2019-03-20T11:22:45.257Z,2.80
2019-03-20T11:25:13.810Z,3.50
2019-03-20T11:27:40.937Z,2.67
2019-03-20T11:30:14.833Z,2.40
2019-03-20T11:32:41.846Z,2.80
2019-03-20T11:35:09.022Z,2.67
2019-03-20T11:37:35.934Z,2.93
2019-03-20T11:40:04.648Z,2.60
2019-03-20T11:42:31.582Z,2.70
2019-03-20T11:44:58.534Z,3.07
2019-03-20T11:47:25.559Z,2.93
2019-03-20T11:49:52.680Z,3.10
2019-03-20T11:52:19.886Z,2.53
2019-03-20T11:54:46.824Z,2.40
2019-03-20T11:57:13.654Z,2.77
2019-03-20T11:59:40.698Z,2.70
2019-03-20T12:02:07.741Z,2.97
2019-03-20T12:04:34.664Z,2.70
2019-03-20T12:07:01.478Z,2.77
2019-03-20T12:09:28.508Z,2.60
2019-03-20T12:11:55.543Z,3.23
2019-03-20T12:14:22.703Z,2.23
2019-03-20T12:16:49.657Z,2.70
2019-03-20T12:19:16.577Z,3.37
2019-03-20T12:21:43.497Z,2.90
2019-03-20T12:24:10.327Z,3.40
2019-03-20T12:26:37.374Z,2.33
2019-03-20T12:29:04.398Z,3.07
2019-03-20T12:31:31.420Z,2.80
2019-03-20T12:33:58.233Z,2.83
2019-03-20T12:36:25.064Z,2.70
2019-03-20T12:38:51.992Z,2.80
2019-03-20T12:41:19.032Z,3.30
2019-03-20T12:43:45.863Z,3.00
2019-03-20T12:46:12.890Z,3.23
2019-03-20T12:48:39.801Z,3.47
2019-03-20T12:51:06.837Z,2.43
2019-03-20T12:53:34.041Z,2.20
2019-03-20T12:56:00.898Z,2.80
2019-03-20T12:58:27.929Z,3.03
2019-03-20T13:00:55.058Z,3.07
2019-03-20T13:03:21.977Z,2.63
2019-03-20T13:05:48.810Z,2.40
2019-03-20T13:08:15.734Z,2.37
2019-03-20T13:10:42.907Z,2.40
2019-03-20T13:13:10.077Z,2.20
2019-03-20T13:15:37.196Z,2.30
2019-03-20T13:18:04.224Z,2.20
2019-03-20T13:20:31.258Z,2.40
2019-03-20T13:23:06.661Z,2.27
2019-03-20T13:25:33.625Z,1.90
2019-03-20T13:28:00.657Z,2.60
2019-03-20T13:30:31.165Z,2.80
2019-03-20T13:32:58.186Z,2.40
2019-03-20T13:35:25.128Z,2.90
2019-03-20T13:37:52.051Z,2.50
2019-03-20T13:40:19.089Z,2.40
2019-03-20T13:42:45.921Z,3.17
2019-03-20T13:45:13.939Z,2.30
2019-03-20T13:47:40.873Z,2.83
2019-03-20T13:50:09.593Z,3.00
2019-03-20T13:52:36.618Z,2.27
2019-03-20T13:55:04.202Z,2.10
2019-03-20T13:57:31.122Z,1.93
2019-03-20T13:59:58.069Z,2.50
2019-03-20T14:02:25.019Z,2.47
2019-03-20T14:04:51.934Z,2.70
2019-03-20T14:07:18.878Z,2.40
2019-03-20T14:09:45.801Z,2.27
2019-03-20T14:12:12.641Z,2.23
2019-03-20T14:14:39.568Z,1.97
2019-03-20T14:17:06.500Z,2.13
2019-03-20T14:19:33.426Z,2.40
2019-03-20T14:22:00.352Z,2.17
2019-03-20T14:24:27.281Z,2.60
2019-03-20T14:26:54.300Z,2.40
2019-03-20T14:29:21.202Z,2.70
2019-03-20T14:31:48.128Z,2.60
2019-03-20T14:34:14.955Z,2.80
2019-03-20T14:36:42.164Z,2.30
2019-03-20T14:39:09.177Z,2.23
2019-03-20T14:41:36.039Z,2.53
2019-03-20T14:44:03.398Z,3.00
2019-03-20T14:46:30.319Z,2.60
2019-03-20T14:48:57.335Z,1.97
2019-03-20T14:51:24.284Z,2.60
2019-03-20T14:53:51.433Z,2.97
2019-03-20T14:56:18.455Z,2.47
2019-03-20T14:58:45.846Z,2.77
2019-03-20T15:01:12.948Z,2.87
2019-03-20T15:03:39.961Z,2.73
2019-03-20T15:06:06.989Z,2.90
2019-03-20T15:08:34.112Z,3.13
2019-03-20T15:11:01.029Z,2.63
2019-03-20T15:13:28.048Z,2.60
2019-03-20T15:15:58.462Z,2.80
2019-03-20T15:18:25.520Z,2.60
2019-03-20T15:20:52.328Z,2.60
2019-03-20T15:23:19.139Z,2.73
2019-03-20T15:25:46.059Z,2.30
2019-03-20T15:28:12.986Z,3.03
2019-03-20T15:30:40.115Z,2.90
2019-03-20T15:33:07.230Z,2.83
2019-03-20T15:35:34.237Z,2.63
2019-03-20T15:38:01.177Z,2.60
2019-03-20T15:40:28.218Z,2.53
2019-03-20T15:42:55.259Z,3.07
2019-03-20T15:45:22.284Z,3.20
2019-03-20T15:47:49.431Z,3.03
2019-03-20T15:50:16.569Z,2.93
2019-03-20T15:52:43.615Z,3.13
2019-03-20T15:55:13.356Z,2.70
2019-03-20T15:57:40.513Z,2.30
2019-03-20T16:00:11.443Z,3.50
2019-03-20T16:02:38.375Z,3.20
2019-03-20T16:05:05.776Z,3.00
2019-03-20T16:07:32.829Z,2.73
2019-03-20T16:09:59.969Z,2.83
2019-03-20T16:12:26.802Z,2.90
2019-03-20T16:14:53.726Z,3.07
2019-03-20T16:17:20.681Z,3.17
2019-03-20T16:19:47.715Z,3.50
2019-03-20T16:22:14.849Z,3.63
2019-03-20T16:24:41.778Z,3.43
2019-03-20T16:27:08.708Z,3.40
2019-03-20T16:29:35.653Z,3.30
2019-03-20T16:32:02.681Z,3.07
2019-03-20T16:34:29.591Z,3.00
2019-03-20T16:36:56.401Z,3.17
2019-03-20T16:39:23.221Z,3.43
2019-03-20T16:41:50.247Z,2.80
2019-03-20T16:44:17.211Z,3.10
2019-03-20T16:46:44.827Z,3.00
2019-03-20T16:49:11.761Z,3.03
2019-03-20T16:51:38.792Z,3.10
2019-03-20T16:54:05.712Z,2.97
2019-03-20T16:56:32.640Z,2.50
2019-03-20T16:58:59.775Z,2.73
2019-03-20T17:01:26.594Z,3.37
2019-03-20T17:03:53.526Z,2.50
2019-03-20T17:06:20.438Z,3.47
2019-03-20T17:08:47.280Z,3.33
2019-03-20T17:11:14.293Z,3.03
2019-03-20T17:13:41.205Z,2.73
2019-03-20T17:16:08.241Z,2.83
2019-03-20T17:18:35.165Z,2.47
2019-03-20T17:21:02.168Z,2.77
2019-03-20T17:23:29.096Z,2.40
2019-03-20T17:25:56.125Z,2.83
2019-03-20T17:28:23.277Z,2.40
2019-03-20T17:30:50.706Z,2.27
2019-03-20T17:33:17.631Z,2.70
2019-03-20T17:35:44.768Z,2.50
2019-03-20T17:38:11.906Z,2.70
2019-03-20T17:40:38.921Z,2.70
2019-03-20T17:43:06.049Z,2.67
2019-03-20T17:45:33.987Z,2.90
2019-03-20T17:48:01.034Z,2.80
2019-03-20T17:50:28.352Z,2.37
2019-03-20T17:52:55.908Z,2.87
2019-03-20T17:55:22.948Z,2.87
2019-03-20T17:57:49.995Z,2.20
2019-03-20T18:00:21.383Z,2.33
2019-03-20T18:02:48.297Z,2.07
2019-03-20T18:05:15.220Z,2.40
2019-03-20T18:07:42.373Z,2.30
2019-03-20T18:10:09.212Z,2.63
2019-03-20T18:12:36.144Z,2.50
2019-03-20T18:15:04.853Z,2.80
2019-03-20T18:17:31.872Z,3.80
2019-03-20T18:19:58.808Z,2.50
2019-03-20T18:22:25.639Z,2.50
2019-03-20T18:24:52.572Z,2.93
2019-03-20T18:27:19.480Z,2.27
2019-03-20T18:29:46.345Z,2.30
2019-03-20T18:32:13.275Z,2.30
2019-03-20T18:34:40.198Z,2.37
2019-03-20T18:37:07.027Z,3.10
2019-03-20T18:39:34.053Z,2.40
2019-03-20T18:42:01.020Z,3.20
2019-03-20T18:44:27.858Z,3.50
2019-03-20T18:46:54.843Z,3.50
2019-03-20T18:49:21.724Z,3.57
2019-03-20T18:51:48.498Z,3.10
2019-03-20T18:54:15.454Z,4.37
2019-03-20T18:56:42.426Z,3.60
2019-03-20T18:59:09.222Z,4.00
2019-03-20T19:01:36.005Z,4.03
2019-03-20T19:04:03.009Z,4.43
2019-03-20T19:06:29.990Z,6.23
2019-03-20T19:08:56.778Z,12.30
2019-03-20T19:11:23.883Z,16.27
2019-03-20T19:13:50.878Z,13.97
2019-03-20T19:16:17.807Z,15.10
2019-03-20T19:18:44.728Z,13.60
2019-03-20T19:21:11.622Z,9.07
2019-03-20T19:23:38.601Z,4.33
2019-03-20T19:26:05.545Z,3.67
2019-03-20T19:28:32.557Z,3.47
2019-03-20T19:30:59.881Z,3.80
2019-03-20T19:33:26.774Z,4.27
2019-03-20T19:35:53.698Z,4.27
2019-03-20T19:38:20.681Z,3.33
2019-03-20T19:40:47.487Z,3.17
2019-03-20T19:43:14.377Z,4.70
2019-03-20T19:45:41.389Z,3.93
2019-03-20T19:48:08.207Z,3.87
2019-03-20T19:50:35.117Z,3.50
2019-03-20T19:53:02.114Z,3.33
2019-03-20T19:55:29.000Z,4.07
2019-03-20T19:57:55.877Z,3.70
2019-03-20T20:00:22.890Z,3.80
2019-03-20T20:02:49.781Z,4.20
2019-03-20T20:05:16.797Z,4.17
2019-03-20T20:07:43.786Z,4.10
2019-03-20T20:10:10.816Z,4.40
2019-03-20T20:12:37.694Z,4.20
2019-03-20T20:15:07.705Z,3.27
2019-03-20T20:17:34.606Z,4.33
2019-03-20T20:20:01.595Z,5.37
2019-03-20T20:22:28.376Z,5.17
2019-03-20T20:24:55.148Z,5.90
2019-03-20T20:27:21.949Z,5.03
2019-03-20T20:29:48.837Z,6.33
2019-03-20T20:32:15.948Z,5.67
2019-03-20T20:34:42.837Z,6.60
2019-03-20T20:37:09.641Z,6.10
2019-03-20T20:39:36.539Z,8.38
2019-03-20T20:42:03.542Z,10.08
2019-03-20T20:44:30.367Z,9.78
2019-03-20T20:46:57.136Z,10.30
2019-03-20T20:49:23.922Z,15.70
2019-03-20T20:51:50.717Z,9.58
2019-03-20T20:54:17.500Z,6.42
2019-03-20T20:56:44.435Z,7.78
2019-03-20T20:59:11.291Z,10.20
2019-03-20T21:01:38.163Z,8.70
2019-03-20T21:04:04.953Z,8.10
2019-03-20T21:06:31.757Z,10.40
2019-03-20T21:08:58.560Z,9.18
2019-03-20T21:11:25.352Z,9.40
2019-03-20T21:13:52.150Z,8.73
2019-03-20T21:16:19.688Z,8.28
2019-03-20T21:19:26.386Z,8.40
2019-03-20T21:22:41.170Z,7.20
2019-03-20T21:25:08.582Z,7.10
2019-03-20T21:28:27.080Z,6.58
2019-03-20T21:31:39.160Z,6.55
2019-03-20T21:35:01.917Z,6.37
2019-03-20T21:38:02.186Z,6.67
2019-03-20T21:40:30.961Z,6.75
2019-03-20T21:43:34.850Z,5.87
2019-03-20T21:46:42.898Z,6.35
2019-03-20T21:49:10.350Z,6.42
2019-03-20T21:51:37.676Z,5.80
2019-03-20T21:54:43.767Z,7.37
2019-03-20T21:57:44.087Z,6.53
2019-03-20T22:00:49.096Z,6.30
2019-03-20T22:03:16.431Z,6.20
2019-03-20T22:06:25.379Z,6.62
2019-03-20T22:08:52.726Z,6.22
2019-03-20T22:11:56.642Z,7.12
2019-03-20T22:14:23.977Z,6.78
2019-03-20T22:17:50.119Z,5.78
2019-03-20T22:20:29.418Z,7.25
2019-03-20T22:23:26.926Z,6.35
2019-03-20T22:26:27.985Z,5.87
2019-03-20T22:29:21.548Z,4.90
2019-03-20T22:32:10.640Z,5.80
2019-03-20T22:34:44.018Z,4.58
2019-03-20T22:37:11.873Z,6.20
2019-03-20T22:40:35.993Z,6.00
2019-03-20T22:43:29.681Z,5.42
2019-03-20T22:46:55.764Z,5.22
2019-03-20T22:49:48.115Z,4.70
2019-03-20T22:52:40.512Z,4.72
2019-03-20T22:55:24.275Z,5.25
2019-03-20T22:58:34.602Z,5.42
2019-03-20T23:01:02.118Z,5.50
2019-03-20T23:03:36.030Z,5.08
2019-03-20T23:06:03.600Z,4.90
2019-03-20T23:08:31.021Z,6.12
2019-03-20T23:10:58.432Z,5.95
2019-03-20T23:13:25.970Z,6.65
2019-03-20T23:15:53.543Z,7.22
2019-03-20T23:18:20.986Z,6.15
2019-03-20T23:20:48.317Z,7.55
2019-03-20T23:23:15.653Z,8.40
2019-03-20T23:25:43.208Z,7.58
2019-03-20T23:28:10.537Z,6.67
2019-03-20T23:30:37.936Z,7.42
2019-03-20T23:33:05.369Z,8.10
2019-03-20T23:35:32.775Z,8.03
2019-03-20T23:38:00.121Z,7.58
2019-03-20T23:40:27.437Z,7.35
2019-03-20T23:42:54.798Z,6.85
2019-03-20T23:45:22.209Z,7.05
2019-03-20T23:47:59.333Z,7.35
2019-03-20T23:50:26.747Z,6.55
2019-03-20T23:52:54.169Z,6.85
2019-03-20T23:55:21.504Z,6.70
2019-03-20T23:57:48.936Z,7.03
